Columbia Metropolitan Airport
KCAE : now visible

Airfield :











YOU CAN JOIN US ON...

 
LOGIN :

Register | Disclaimer

   EN    FR    IT 

 









Legend :    VFR   Marginal VFR   IFR   Intensive IFR   Very Intensive IFR
Visi :
Ceiling :
>= 8 km
>= 3000ft
5 to 8 km
1000 to 3000 ft
1500m to 5 km
500 to 1000 ft
800 to 1500m
200 to 500 ft
< 800m
< 200 ft
Symbols :   Thunderstorms  Fog  Heavy snow  Heavy precipitations  Wind > 20 kt






- Airport Elevation : 236 ft
- IATA code : CAE


KCAE - Columbia Metropolitan

CURRENT METAR :
  • 271438Z 00000KT 3SM BR BKN002 17/16 A3021 RMK AO2 T01670161

EXPIRED METARs :
  • 271421Z 00000KT 2SM BR OVC001 17/16 A3021 RMK AO2 T01670156
  • 271401Z 00000KT 1SM BR OVC001 16/16 A3021 RMK AO2 T01560156 RVRNO
  • 271329Z 00000KT 1SM BR VV002 16/15 A3021 RMK AO2 T01560150 RVRNO
  • 271310Z 00000KT 1/4SM FG VV002 15/15 A3021 RMK AO2 T01500150 RVRNO
  • 271256Z 00000KT M1/4SM FG VV002 15/14 A3021 RMK AO2 SLP230 T01500144 RVRNO
  • 271226Z 00000KT 1/2SM FG OVC002 14/14 A3020 RMK AO2 T01440139 RVRNO
  • 271208Z 00000KT 1SM BR OVC002 14/13 A3020 RMK AO2 T01440133 RVRNO
  • 271156Z 00000KT 1 1/2SM BR OVC002 14/13 A3019 RMK AO2 SLP222 T01390128 10150 20128 53010
  • 271144Z 00000KT 1 1/2SM BR OVC002 13/13 A3019 RMK AO2 T01330128

TAF KCAE
Valid from the 27 at 14:00 until the 28 at 12:00 UTC


271359Z 2714/2812 00000KT P6SM BKN002
TEMPO 2714/2715 1/2SM FG OVC002
FM271500 VRB03KT P6SM SCT015
FM271700 VRB04KT P6SM SCT025
FM280900 13003KT 5SM BR SCT010 SCT100 BKN250
KZJX FIR / North America



MET'MAP, your aeronautical weather chart ! - Copyright ORBIFLY December 2007 - Disclaimer

ORBIFLY MET'MAP TEAM :

Programming & Development : Alexandra Zaïnal
Concept & original design : Baudouin d'Aumeries
Assistance for programming : Marc-Olivier Méhu
Technical & hardware support : Manuel Goepfert

Contact : metmap@orbifly.com




SOURCES & CREDITS :

   NOAA       Earth
Advisory